createdAt,value
2023-03-21T00:01:35.137Z,2.30
2023-03-21T00:04:02.209Z,2.90
2023-03-21T00:06:29.143Z,4.47
2023-03-21T00:08:55.938Z,2.33
2023-03-21T00:11:22.757Z,1.73
2023-03-21T00:13:49.782Z,3.15
2023-03-21T00:16:21.530Z,2.17
2023-03-21T00:18:52.313Z,2.17
2023-03-21T00:21:48.719Z,1.92
2023-03-21T00:24:08.019Z,2.60
2023-03-21T00:26:35.579Z,2.17
2023-03-21T00:29:02.575Z,2.35
2023-03-21T00:31:29.610Z,1.85
2023-03-21T00:33:56.877Z,2.40
2023-03-21T00:36:25.881Z,4.50
2023-03-21T00:38:53.128Z,1.90
2023-03-21T00:41:35.197Z,2.10
2023-03-21T00:44:06.743Z,2.20
2023-03-21T00:46:45.189Z,2.45
2023-03-21T00:49:13.985Z,2.35
2023-03-21T00:51:40.903Z,2.10
2023-03-21T00:54:07.797Z,2.00
2023-03-21T00:56:34.636Z,1.75
2023-03-21T00:59:01.569Z,2.25
2023-03-21T01:01:32.109Z,5.78
2023-03-21T01:04:05.567Z,2.20
2023-03-21T01:06:39.289Z,2.45
2023-03-21T01:09:08.156Z,4.05
2023-03-21T01:11:35.296Z,3.33
2023-03-21T01:14:18.760Z,2.13
2023-03-21T01:16:48.597Z,2.58
2023-03-21T01:19:25.481Z,2.42
2023-03-21T01:21:55.347Z,3.13
2023-03-21T01:24:22.650Z,2.50
2023-03-21T01:26:49.502Z,3.75
2023-03-21T01:29:16.270Z,2.47
2023-03-21T01:31:43.495Z,3.15
2023-03-21T01:34:10.375Z,1.80
2023-03-21T01:36:37.185Z,2.33
2023-03-21T01:39:06.132Z,1.77
2023-03-21T01:41:43.401Z,2.47
2023-03-21T01:44:17.342Z,2.92
2023-03-21T01:46:57.449Z,2.30
2023-03-21T01:49:34.297Z,1.90
2023-03-21T01:52:12.183Z,2.92
2023-03-21T01:54:43.580Z,3.65
2023-03-21T01:57:17.070Z,2.42
2023-03-21T01:59:48.123Z,2.63
2023-03-21T02:02:27.139Z,1.85
2023-03-21T02:04:58.136Z,2.95
2023-03-21T02:07:37.426Z,3.35
2023-03-21T02:10:09.887Z,3.25
2023-03-21T02:12:37.728Z,1.77
2023-03-21T02:15:07.416Z,5.22
2023-03-21T02:17:34.811Z,1.63
2023-03-21T02:20:36.723Z,2.22
2023-03-21T02:23:25.114Z,3.75
2023-03-21T02:25:57.947Z,1.80
2023-03-21T02:28:46.801Z,1.98
2023-03-21T02:31:17.953Z,2.17
2023-03-21T02:33:54.051Z,1.70
2023-03-21T02:36:32.463Z,1.95
2023-03-21T02:39:01.318Z,2.28
2023-03-21T02:41:38.289Z,2.17
2023-03-21T02:44:14.437Z,3.10
2023-03-21T02:47:06.611Z,2.53
2023-03-21T02:49:43.237Z,2.00
2023-03-21T02:52:39.447Z,2.83
2023-03-21T02:55:35.844Z,3.03
2023-03-21T02:58:12.861Z,2.15
2023-03-21T03:00:42.827Z,4.45
2023-03-21T03:03:12.724Z,2.00
2023-03-21T03:05:56.004Z,2.73
2023-03-21T03:08:41.283Z,2.03
2023-03-21T03:11:24.174Z,3.50
2023-03-21T03:13:50.942Z,2.72
2023-03-21T03:16:36.599Z,2.33
2023-03-21T03:19:07.797Z,3.60
2023-03-21T03:21:46.505Z,1.85
2023-03-21T03:24:27.319Z,3.28
2023-03-21T03:27:04.684Z,2.40
2023-03-21T03:29:34.665Z,3.58
2023-03-21T03:32:03.460Z,1.83
2023-03-21T03:34:40.310Z,2.60
2023-03-21T03:37:16.442Z,2.33
2023-03-21T03:39:53.659Z,2.15
2023-03-21T03:42:29.070Z,5.15
2023-03-21T03:44:56.960Z,2.97
2023-03-21T03:47:34.779Z,3.65
2023-03-21T03:50:23.275Z,2.40
2023-03-21T03:52:57.328Z,1.92
2023-03-21T03:55:27.244Z,1.92
2023-03-21T03:57:55.277Z,3.58
2023-03-21T04:00:22.169Z,2.03
2023-03-21T04:02:48.966Z,2.67
2023-03-21T04:05:21.269Z,3.25
2023-03-21T04:07:50.977Z,4.63
2023-03-21T04:10:18.663Z,2.88
2023-03-21T04:12:45.672Z,2.00
2023-03-21T04:15:12.830Z,2.72
2023-03-21T04:17:40.060Z,3.75
2023-03-21T04:20:12.916Z,3.65
2023-03-21T04:22:43.699Z,2.40
2023-03-21T04:25:10.825Z,2.72
2023-03-21T04:27:37.759Z,3.90
2023-03-21T04:30:06.074Z,3.42
2023-03-21T04:32:44.731Z,3.63
2023-03-21T04:35:11.801Z,2.38
2023-03-21T04:37:39.216Z,2.58
2023-03-21T04:40:07.385Z,3.80
2023-03-21T04:42:35.183Z,2.53
2023-03-21T04:45:02.441Z,2.30
2023-03-21T04:47:30.139Z,5.72
2023-03-21T04:49:59.996Z,3.30
2023-03-21T04:52:27.019Z,2.65
2023-03-21T04:54:53.827Z,2.47
2023-03-21T04:57:20.817Z,5.43
2023-03-21T04:59:47.592Z,3.83
2023-03-21T05:02:14.348Z,2.78
2023-03-21T05:04:41.323Z,4.53
2023-03-21T05:07:08.512Z,5.28
2023-03-21T05:09:35.370Z,4.30
2023-03-21T05:12:02.320Z,5.45
2023-03-21T05:14:29.586Z,5.00
2023-03-21T05:16:57.645Z,3.00
2023-03-21T05:19:40.392Z,4.28
2023-03-21T05:22:09.569Z,3.58
2023-03-21T05:24:41.678Z,2.67
2023-03-21T05:27:08.596Z,5.07
2023-03-21T05:29:35.490Z,2.95
2023-03-21T05:32:02.318Z,3.70
2023-03-21T05:34:29.836Z,2.55
2023-03-21T05:36:56.666Z,3.40
2023-03-21T05:39:23.438Z,2.63
2023-03-21T05:41:50.422Z,3.80
2023-03-21T05:44:17.207Z,8.82
2023-03-21T05:46:44.069Z,13.55
2023-03-21T05:49:12.373Z,18.23
2023-03-21T05:51:39.140Z,33.17
2023-03-21T05:54:06.546Z,42.95
2023-03-21T05:56:36.339Z,44.40
2023-03-21T05:59:03.222Z,30.98
2023-03-21T06:01:30.008Z,26.02
2023-03-21T06:03:56.804Z,21.30
2023-03-21T06:06:23.625Z,16.40
2023-03-21T06:08:50.509Z,13.20
2023-03-21T06:11:25.925Z,11.10
2023-03-21T06:13:52.728Z,8.70
2023-03-21T06:16:20.817Z,6.80
2023-03-21T06:18:47.691Z,6.22
2023-03-21T06:21:14.460Z,5.68
2023-03-21T06:23:41.396Z,6.70
2023-03-21T06:26:08.250Z,6.00
2023-03-21T06:28:35.261Z,5.70
2023-03-21T06:31:02.133Z,5.50
2023-03-21T06:33:29.237Z,5.97
2023-03-21T06:35:58.633Z,7.90
2023-03-21T06:38:26.217Z,5.55
2023-03-21T06:40:53.254Z,4.50
2023-03-21T06:43:20.306Z,4.43
2023-03-21T06:45:47.134Z,4.18
2023-03-21T06:48:14.107Z,4.05
2023-03-21T06:50:40.914Z,4.32
2023-03-21T06:53:07.687Z,4.95
2023-03-21T06:55:34.480Z,3.38
2023-03-21T06:58:01.247Z,3.10
2023-03-21T07:00:28.156Z,3.72
2023-03-21T07:02:54.981Z,3.85
2023-03-21T07:05:21.854Z,4.05
2023-03-21T07:07:48.668Z,5.18
2023-03-21T07:10:15.789Z,3.65
2023-03-21T07:12:42.662Z,4.18
2023-03-21T07:15:10.650Z,3.85
2023-03-21T07:17:37.555Z,4.60
2023-03-21T07:20:08.223Z,3.10
2023-03-21T07:22:36.180Z,3.55
2023-03-21T07:25:05.427Z,2.70
2023-03-21T07:27:32.544Z,4.38
2023-03-21T07:29:59.644Z,4.15
2023-03-21T07:32:29.903Z,3.50
2023-03-21T07:34:56.777Z,3.45
2023-03-21T07:37:23.956Z,2.20
2023-03-21T07:39:51.452Z,3.35
2023-03-21T07:42:18.933Z,3.63
2023-03-21T07:44:45.842Z,3.55
2023-03-21T07:47:12.637Z,4.18
2023-03-21T07:49:39.402Z,3.10
2023-03-21T07:52:07.910Z,4.10
2023-03-21T07:54:34.737Z,4.43
2023-03-21T07:57:01.562Z,3.60
2023-03-21T07:59:28.430Z,4.50
2023-03-21T08:01:55.208Z,4.10
2023-03-21T08:04:22.565Z,3.53
2023-03-21T08:06:51.114Z,3.25
2023-03-21T08:09:17.949Z,2.50
2023-03-21T08:11:44.739Z,2.78
2023-03-21T08:14:11.569Z,2.53
2023-03-21T08:16:38.423Z,3.00
2023-03-21T08:19:05.274Z,2.88
2023-03-21T08:21:32.058Z,3.10
2023-03-21T08:23:58.938Z,2.33
2023-03-21T08:26:26.533Z,2.92
2023-03-21T08:28:53.350Z,3.35
2023-03-21T08:31:21.788Z,4.43
2023-03-21T08:33:53.688Z,4.35
2023-03-21T08:36:22.296Z,4.25
2023-03-21T08:38:53.900Z,4.20
2023-03-21T08:41:25.954Z,4.05
2023-03-21T08:43:52.835Z,3.03
2023-03-21T08:46:19.687Z,2.50
2023-03-21T08:48:46.764Z,3.13
2023-03-21T08:51:13.566Z,2.13
2023-03-21T08:53:41.557Z,4.20
2023-03-21T08:56:08.861Z,2.40
2023-03-21T08:58:36.446Z,4.78
2023-03-21T09:01:04.561Z,3.28
2023-03-21T09:03:31.305Z,2.88
2023-03-21T09:05:58.908Z,1.63
2023-03-21T09:08:25.736Z,2.53
2023-03-21T09:10:57.044Z,3.53
2023-03-21T09:13:24.265Z,3.13
2023-03-21T09:15:51.035Z,2.22
2023-03-21T09:18:18.107Z,2.13
2023-03-21T09:20:46.710Z,2.65
2023-03-21T09:23:14.601Z,3.33
2023-03-21T09:25:42.306Z,3.05
2023-03-21T09:28:09.736Z,2.70
2023-03-21T09:30:37.730Z,2.38
2023-03-21T09:33:19.177Z,3.15
2023-03-21T09:35:46.847Z,2.40
2023-03-21T09:38:14.097Z,3.22
2023-03-21T09:40:59.841Z,2.88
2023-03-21T09:43:33.069Z,2.40
2023-03-21T09:46:13.771Z,4.05
2023-03-21T09:48:57.496Z,3.88
2023-03-21T09:51:28.750Z,3.05
2023-03-21T09:54:00.566Z,1.98
2023-03-21T09:56:27.891Z,3.50
2023-03-21T09:58:59.316Z,1.63
2023-03-21T10:01:29.936Z,2.72
2023-03-21T10:04:00.653Z,2.13
2023-03-21T10:06:31.715Z,3.08
2023-03-21T10:09:24.553Z,2.75
2023-03-21T10:11:58.825Z,4.63
2023-03-21T10:14:57.969Z,3.10
2023-03-21T10:17:43.579Z,2.75
2023-03-21T10:20:21.481Z,4.00
2023-03-21T10:22:51.706Z,3.13
2023-03-21T10:25:22.010Z,2.88
2023-03-21T10:27:52.582Z,1.98
2023-03-21T10:30:29.185Z,1.90
2023-03-21T10:32:59.724Z,3.28
2023-03-21T10:35:27.072Z,3.10
2023-03-21T10:37:53.887Z,1.67
2023-03-21T10:40:21.223Z,2.05
2023-03-21T10:42:48.146Z,2.85
2023-03-21T10:45:20.623Z,2.63
2023-03-21T10:47:49.610Z,3.10
2023-03-21T10:50:20.592Z,5.03
2023-03-21T10:52:53.384Z,1.67
2023-03-21T10:55:31.212Z,3.25
2023-03-21T10:58:10.875Z,2.13
2023-03-21T11:00:41.520Z,4.22
2023-03-21T11:03:23.323Z,2.08
2023-03-21T11:05:57.193Z,1.85
2023-03-21T11:08:24.116Z,2.90
2023-03-21T11:11:08.320Z,2.70
2023-03-21T11:13:40.228Z,1.95
2023-03-21T11:16:11.653Z,2.22
2023-03-21T11:18:43.938Z,2.47
2023-03-21T11:21:13.666Z,1.88
2023-03-21T11:23:50.340Z,1.33
2023-03-21T11:26:28.458Z,2.88
2023-03-21T11:28:55.710Z,2.17
2023-03-21T11:31:24.903Z,2.67
2023-03-21T11:33:57.043Z,6.30
2023-03-21T11:36:24.001Z,1.95
2023-03-21T11:38:53.939Z,2.05
2023-03-21T11:41:29.606Z,2.22
2023-03-21T11:43:57.681Z,2.80
2023-03-21T11:46:31.228Z,2.47
2023-03-21T11:48:59.509Z,2.22
2023-03-21T11:51:41.866Z,2.17
2023-03-21T11:54:39.685Z,4.32
2023-03-21T11:57:32.567Z,2.92
2023-03-21T12:00:20.791Z,1.88
2023-03-21T12:03:12.569Z,3.17
2023-03-21T12:05:51.802Z,2.67
2023-03-21T12:08:59.895Z,1.55
2023-03-21T12:11:52.303Z,1.88
2023-03-21T12:15:03.995Z,1.42
2023-03-21T12:18:03.065Z,2.55
2023-03-21T12:21:03.767Z,1.90
2023-03-21T12:23:48.306Z,2.40
2023-03-21T12:26:23.055Z,1.48
2023-03-21T12:29:02.048Z,2.25
2023-03-21T12:31:37.770Z,1.85
2023-03-21T12:34:32.449Z,1.88
2023-03-21T12:37:09.705Z,1.05
2023-03-21T12:39:39.683Z,2.30
2023-03-21T12:42:26.251Z,2.17
2023-03-21T12:45:11.562Z,2.63
2023-03-21T12:47:48.796Z,1.10
2023-03-21T12:50:23.288Z,1.77
2023-03-21T12:53:01.471Z,0.90
2023-03-21T12:55:32.474Z,1.65
2023-03-21T12:58:22.670Z,1.08
2023-03-21T13:00:58.371Z,2.42
2023-03-21T13:03:39.832Z,1.33
2023-03-21T13:06:10.726Z,1.40
2023-03-21T13:08:43.607Z,2.00
2023-03-21T13:11:16.032Z,1.17
2023-03-21T13:14:01.775Z,1.65
2023-03-21T13:19:36.730Z,1.90
2023-03-21T13:22:06.990Z,1.67
2023-03-21T13:25:08.336Z,1.58
2023-03-21T13:27:39.216Z,1.58
2023-03-21T13:30:19.208Z,1.45
2023-03-21T13:32:49.674Z,2.33
2023-03-21T13:35:27.483Z,1.13
2023-03-21T13:38:12.926Z,2.60
2023-03-21T13:40:50.237Z,1.77
2023-03-21T13:43:45.812Z,2.17
2023-03-21T13:46:53.671Z,1.38
2023-03-21T13:49:36.614Z,0.63
2023-03-21T13:52:09.720Z,0.93
2023-03-21T13:54:40.240Z,1.40
2023-03-21T13:57:14.777Z,2.63
2023-03-21T13:59:45.517Z,3.35
2023-03-21T14:02:12.785Z,1.55
2023-03-21T14:04:53.328Z,2.08
2023-03-21T14:07:26.384Z,1.33
2023-03-21T14:10:07.780Z,2.95
2023-03-21T14:12:40.821Z,2.38
2023-03-21T14:15:18.012Z,1.20
2023-03-21T14:17:51.173Z,1.55
2023-03-21T14:20:30.792Z,2.35
2023-03-21T14:22:57.822Z,2.42
2023-03-21T14:25:37.294Z,2.55
2023-03-21T14:28:15.309Z,1.63
2023-03-21T14:30:44.120Z,1.02
2023-03-21T14:33:31.492Z,2.42
2023-03-21T14:36:10.617Z,3.80
2023-03-21T14:38:39.070Z,1.55
2023-03-21T14:41:20.993Z,2.65
2023-03-21T14:44:28.053Z,1.20
2023-03-21T14:47:09.261Z,2.75
2023-03-21T14:49:37.834Z,1.70
2023-03-21T14:52:23.968Z,2.13
2023-03-21T14:54:52.128Z,1.23
2023-03-21T14:57:28.826Z,1.45
2023-03-21T14:59:59.333Z,1.63
2023-03-21T15:02:36.616Z,1.20
2023-03-21T15:05:21.855Z,2.00
2023-03-21T15:08:09.463Z,1.48
2023-03-21T15:10:36.401Z,1.23
2023-03-21T15:13:14.991Z,2.10
2023-03-21T15:15:42.997Z,1.77
2023-03-21T15:18:16.372Z,0.73
2023-03-21T15:20:44.931Z,2.10
2023-03-21T15:23:38.489Z,1.58
2023-03-21T15:26:12.877Z,3.00
2023-03-21T15:28:39.704Z,1.85
2023-03-21T15:31:18.284Z,1.25
2023-03-21T15:33:50.409Z,3.97
2023-03-21T15:36:25.743Z,2.08
2023-03-21T15:38:52.757Z,3.47
2023-03-21T15:41:19.593Z,1.60
2023-03-21T15:43:49.117Z,2.38
2023-03-21T15:46:42.910Z,2.00
2023-03-21T15:49:17.835Z,1.27
2023-03-21T15:52:09.250Z,1.55
2023-03-21T15:54:43.878Z,1.55
2023-03-21T15:57:33.154Z,2.08
2023-03-21T16:00:06.182Z,1.80
2023-03-21T16:02:33.128Z,1.80
2023-03-21T16:05:01.108Z,1.33
2023-03-21T16:07:28.412Z,2.63
2023-03-21T16:10:04.829Z,2.55
2023-03-21T16:12:31.751Z,1.70
2023-03-21T16:14:58.479Z,2.08
2023-03-21T16:17:37.588Z,3.55
2023-03-21T16:20:17.920Z,1.80
2023-03-21T16:22:44.929Z,1.90
2023-03-21T16:25:11.768Z,2.58
2023-03-21T16:27:38.926Z,2.45
2023-03-21T16:30:09.381Z,2.63
2023-03-21T16:32:36.906Z,2.17
2023-03-21T16:35:04.261Z,2.45
2023-03-21T16:37:31.320Z,1.23
2023-03-21T16:39:58.178Z,3.45
2023-03-21T16:42:25.057Z,1.65
2023-03-21T16:44:51.777Z,1.15
2023-03-21T16:47:20.787Z,1.73
2023-03-21T16:49:47.941Z,1.85
2023-03-21T16:52:15.334Z,1.80
2023-03-21T16:54:43.188Z,2.05
2023-03-21T16:57:23.631Z,1.25
2023-03-21T16:59:50.655Z,1.45
2023-03-21T17:02:17.463Z,1.63
2023-03-21T17:04:44.623Z,1.73
2023-03-21T17:07:16.023Z,2.95
2023-03-21T17:09:43.777Z,1.80
2023-03-21T17:12:13.698Z,2.85
2023-03-21T17:14:41.966Z,2.20
2023-03-21T17:17:13.241Z,2.05
2023-03-21T17:19:40.320Z,2.08
2023-03-21T17:22:07.649Z,4.07
2023-03-21T17:24:35.433Z,3.70
2023-03-21T17:27:03.949Z,2.88
2023-03-21T17:29:30.984Z,2.15
2023-03-21T17:31:57.792Z,3.70
2023-03-21T17:34:24.592Z,2.42
2023-03-21T17:36:51.626Z,3.55
2023-03-21T17:39:24.177Z,3.03
2023-03-21T17:41:52.346Z,2.90
2023-03-21T17:44:20.325Z,3.53
2023-03-21T17:46:49.035Z,3.47
2023-03-21T17:49:17.153Z,3.50
2023-03-21T17:51:46.817Z,3.53
2023-03-21T17:54:13.706Z,3.65
2023-03-21T17:56:41.937Z,2.05
2023-03-21T17:59:12.767Z,3.05
2023-03-21T18:01:39.645Z,3.38
2023-03-21T18:04:07.063Z,3.38
2023-03-21T18:06:34.537Z,2.78
2023-03-21T18:09:06.692Z,3.85
2023-03-21T18:11:33.603Z,3.53
2023-03-21T18:14:14.465Z,3.95
2023-03-21T18:16:42.900Z,5.15
2023-03-21T18:19:12.656Z,3.17
2023-03-21T18:21:45.767Z,5.07
2023-03-21T18:24:13.511Z,4.38
2023-03-21T18:26:41.003Z,3.15
2023-03-21T18:30:13.115Z,4.32
2023-03-21T18:32:06.328Z,3.85
2023-03-21T18:34:39.069Z,3.63
2023-03-21T18:37:08.006Z,4.38
2023-03-21T18:39:35.501Z,3.63
2023-03-21T18:42:03.698Z,4.32
2023-03-21T18:44:38.862Z,4.38
2023-03-21T18:47:07.171Z,3.10
2023-03-21T18:52:21.315Z,3.92
2023-03-21T18:54:48.914Z,5.00
2023-03-21T18:57:35.781Z,2.40
2023-03-21T19:00:17.071Z,2.70
2023-03-21T19:02:47.701Z,4.38
2023-03-21T19:05:17.778Z,2.17
2023-03-21T19:07:44.834Z,3.25
2023-03-21T19:10:17.978Z,3.42
2023-03-21T19:12:45.840Z,2.83
2023-03-21T19:15:12.639Z,2.78
2023-03-21T19:20:27.272Z,2.35
2023-03-21T19:22:54.065Z,3.17
2023-03-21T19:25:21.763Z,6.13
2023-03-21T19:27:48.785Z,2.20
2023-03-21T19:30:16.973Z,2.67
2023-03-21T19:32:44.844Z,3.55
2023-03-21T19:35:12.414Z,2.75
2023-03-21T19:37:39.313Z,3.58
2023-03-21T19:40:07.261Z,2.72
2023-03-21T19:42:36.477Z,2.17
2023-03-21T19:45:05.418Z,2.13
2023-03-21T19:47:32.804Z,2.20
2023-03-21T19:50:43.938Z,1.67
2023-03-21T19:52:47.023Z,3.40
2023-03-21T19:55:14.933Z,2.90
2023-03-21T19:57:41.938Z,2.47
2023-03-21T20:00:11.345Z,3.85
2023-03-21T20:02:38.632Z,2.33
2023-03-21T20:05:07.061Z,2.83
2023-03-21T20:07:34.044Z,3.33
2023-03-21T20:10:01.211Z,2.65
2023-03-21T20:12:28.694Z,2.35
2023-03-21T20:15:10.262Z,1.98
2023-03-21T20:17:43.496Z,3.63
2023-03-21T20:20:14.468Z,1.60
2023-03-21T20:25:30.112Z,1.90
2023-03-21T20:28:14.544Z,4.30
2023-03-21T20:30:50.827Z,1.70
2023-03-21T20:33:17.829Z,5.85
2023-03-21T20:36:32.155Z,2.90
2023-03-21T20:38:33.479Z,2.42
2023-03-21T20:41:02.583Z,5.30
2023-03-21T20:46:18.568Z,2.78
2023-03-21T20:48:48.827Z,2.08
2023-03-21T20:54:03.512Z,3.08
2023-03-21T20:56:30.639Z,2.63
2023-03-21T20:59:12.469Z,3.83
2023-03-21T21:01:43.164Z,5.22
2023-03-21T21:04:11.677Z,5.63
2023-03-21T21:06:40.292Z,4.00
2023-03-21T21:09:07.118Z,2.17
2023-03-21T21:16:48.870Z,3.50
2023-03-21T21:19:18.793Z,4.45
2023-03-21T21:21:46.160Z,2.85
2023-03-21T21:24:14.514Z,2.72
2023-03-21T21:26:46.153Z,3.63
2023-03-21T21:29:17.027Z,3.05
2023-03-21T21:31:48.915Z,2.60
2023-03-21T21:34:17.988Z,2.85
2023-03-21T21:36:45.043Z,2.35
2023-03-21T21:39:18.710Z,2.60
2023-03-21T21:41:45.575Z,2.22
2023-03-21T21:44:12.334Z,1.92
2023-03-21T21:46:39.260Z,3.97
2023-03-21T21:49:06.626Z,1.98
2023-03-21T21:51:34.113Z,3.67
2023-03-21T21:54:03.557Z,3.42
2023-03-21T21:56:32.532Z,2.67
2023-03-21T21:59:03.224Z,3.42
2023-03-21T22:01:31.770Z,1.80
2023-03-21T22:04:06.130Z,2.60
2023-03-21T22:06:34.052Z,2.35
2023-03-21T22:09:01.022Z,2.83
2023-03-21T22:11:27.983Z,2.90
2023-03-21T22:13:54.761Z,2.45
2023-03-21T22:16:21.909Z,3.08
2023-03-21T22:18:48.747Z,4.00
2023-03-21T22:21:15.823Z,2.17
2023-03-21T22:23:42.857Z,3.03
2023-03-21T22:26:10.596Z,3.35
2023-03-21T22:28:39.733Z,3.35
2023-03-21T22:31:17.878Z,2.88
2023-03-21T22:33:45.467Z,3.40
2023-03-21T22:36:12.392Z,3.40
2023-03-21T22:38:41.747Z,2.03
2023-03-21T22:41:08.659Z,2.75
2023-03-21T22:43:35.574Z,2.92
2023-03-21T22:46:04.743Z,3.75
2023-03-21T22:48:32.617Z,2.40
2023-03-21T22:51:00.533Z,3.85
2023-03-21T22:53:28.273Z,2.58
2023-03-21T22:55:55.730Z,3.33
2023-03-21T22:58:22.783Z,3.40
2023-03-21T23:00:49.643Z,2.55
2023-03-21T23:03:17.003Z,4.13
2023-03-21T23:05:44.683Z,2.20
2023-03-21T23:08:11.975Z,2.53
2023-03-21T23:10:40.344Z,4.05
2023-03-21T23:13:07.385Z,4.95
2023-03-21T23:15:34.203Z,3.83
2023-03-21T23:18:01.142Z,3.15
2023-03-21T23:20:28.340Z,2.63
2023-03-21T23:22:55.242Z,5.50
2023-03-21T23:25:22.134Z,3.13
2023-03-21T23:27:48.976Z,2.60
2023-03-21T23:30:15.842Z,2.20
2023-03-21T23:32:42.920Z,3.63
2023-03-21T23:35:10.278Z,2.58
2023-03-21T23:37:37.159Z,4.45
2023-03-21T23:40:06.365Z,2.67
2023-03-21T23:42:34.218Z,3.30
2023-03-21T23:45:01.340Z,2.78
2023-03-21T23:47:28.365Z,4.70
2023-03-21T23:49:55.200Z,3.53
2023-03-21T23:52:22.008Z,2.80
2023-03-21T23:54:48.802Z,2.72
2023-03-21T23:57:17.194Z,2.78
2023-03-21T23:59:46.600Z,2.83
